Time;durP1;ratioP1;P1;durP2;ratioP2;P2;SDS_P1;SDS_P2;PMS_P1;PMS_P2;Temp;Humidity;BMP_temperature;BMP_pressure;BME280_temperature;BME280_humidity;BME280_pressure;Samples;Min_cycle;Max_cycle;Signal;HPM_P1;HPM_P2
2023/05/22 00:00:17;;;;;;;19.40;9.68;;;16.50;1.00;;;;;;5091690;28;20382;-67
2023/05/22 00:02:43;;;;;;;18.85;9.88;;;16.50;1.00;;;;;;5091349;28;20859;-60
2023/05/22 00:05:11;;;;;;;18.77;9.73;;;16.50;1.00;;;;;;5089930;28;20385;-66
2023/05/22 00:07:38;;;;;;;22.25;9.65;;;16.40;1.00;;;;;;5071342;28;20380;-67
2023/05/22 00:10:05;;;;;;;19.52;10.20;;;16.30;99.90;;;;;;5080230;28;20417;-66
2023/05/22 00:12:30;;;;;;;19.00;10.52;;;16.30;99.90;;;;;;5089389;28;20906;-66
2023/05/22 00:14:56;;;;;;;18.80;10.80;;;16.40;99.90;;;;;;5089714;28;20434;-66
2023/05/22 00:17:22;;;;;;;19.58;10.20;;;16.40;99.90;;;;;;5088531;28;20398;-67
2023/05/22 00:19:48;;;;;;;19.77;10.23;;;16.50;16.60;;;;;;5089430;28;20406;-67
2023/05/22 00:22:13;;;;;;;20.05;9.98;;;16.50;1.00;;;;;;5089950;28;20405;-66
2023/05/22 00:24:39;;;;;;;18.27;10.20;;;16.50;1.00;;;;;;5089256;28;20793;-66
2023/05/22 00:27:05;;;;;;;20.80;10.73;;;16.30;1.00;;;;;;5087715;28;20400;-67
2023/05/22 00:29:30;;;;;;;18.33;10.32;;;16.30;2.00;;;;;;5090044;28;20394;-67
2023/05/22 00:31:56;;;;;;;18.90;10.30;;;16.40;1.00;;;;;;5071356;28;20453;-67
2023/05/22 00:34:21;;;;;;;18.63;10.50;;;16.30;1.00;;;;;;5089401;28;20405;-67
2023/05/22 00:36:47;;;;;;;18.47;9.80;;;16.30;1.00;;;;;;5088132;28;20397;-60
2023/05/22 00:39:12;;;;;;;21.20;10.48;;;16.30;1.00;;;;;;5089128;28;20404;-67
2023/05/22 00:41:38;;;;;;;20.25;11.10;;;16.30;1.00;;;;;;5090062;28;20950;-67
2023/05/22 00:44:04;;;;;;;20.50;10.57;;;16.10;66.60;;;;;;5090274;28;20366;-67
2023/05/22 00:46:31;;;;;;;22.38;10.88;;;16.00;99.90;;;;;;5089931;28;20470;-67
2023/05/22 00:48:57;;;;;;;18.38;10.65;;;15.80;99.90;;;;;;5087994;28;20406;-67
2023/05/22 00:51:23;;;;;;;18.90;10.50;;;15.70;99.90;;;;;;5089232;28;20413;-67
2023/05/22 00:53:49;;;;;;;20.48;11.18;;;15.70;99.90;;;;;;5088812;28;20489;-67
2023/05/22 00:56:16;;;;;;;21.20;10.50;;;15.70;1.00;;;;;;5080880;28;20394;-67
2023/05/22 00:58:42;;;;;;;18.20;10.10;;;15.70;1.00;;;;;;5089679;28;20454;-67
2023/05/22 01:01:10;;;;;;;19.83;10.00;;;15.60;1.00;;;;;;5088630;28;20550;-67
2023/05/22 01:03:41;;;;;;;19.48;10.32;;;15.60;1.00;;;;;;5088006;28;20437;-67
2023/05/22 01:06:07;;;;;;;19.73;10.35;;;15.60;1.00;;;;;;5083332;28;20377;-68
2023/05/22 01:08:33;;;;;;;19.47;10.20;;;15.60;1.00;;;;;;5078658;28;20410;-67
2023/05/22 01:11:21;;;;;;;19.50;10.57;;;15.60;1.00;;;;;;5089079;28;20433;-67
2023/05/22 01:13:55;;;;;;;19.27;10.43;;;15.60;99.90;;;;;;5089576;28;20386;-59
2023/05/22 01:16:38;;;;;;;19.10;10.07;;;15.70;1.00;;;;;;5090639;28;20599;-67
2023/05/22 01:19:21;;;;;;;20.58;10.20;;;15.60;99.90;;;;;;5089515;28;20399;-66
2023/05/22 01:22:16;;;;;;;18.48;10.30;;;15.60;99.90;;;;;;5089571;28;20381;-60
2023/05/22 01:25:16;;;;;;;17.80;9.52;;;15.50;99.90;;;;;;5070356;28;20468;-67
2023/05/22 01:28:03;;;;;;;19.15;9.90;;;15.40;99.90;;;;;;5069948;28;20368;-67
2023/05/22 01:31:01;;;;;;;20.15;10.50;;;15.40;99.90;;;;;;5069905;28;20411;-67
2023/05/22 01:33:32;;;;;;;20.00;10.20;;;15.40;99.90;;;;;;5069989;28;20399;-67
2023/05/22 01:36:00;;;;;;;20.83;10.73;;;15.40;99.90;;;;;;5069041;28;20388;-67
2023/05/22 01:38:26;;;;;;;20.00;9.47;;;15.30;1.00;;;;;;5069588;28;20394;-65
2023/05/22 01:40:53;;;;;;;19.55;10.02;;;15.40;1.00;;;;;;5069569;28;20427;-67
2023/05/22 01:43:19;;;;;;;18.90;9.73;;;15.30;1.00;;;;;;5069579;28;20512;-67
2023/05/22 01:45:45;;;;;;;20.00;10.52;;;15.40;1.00;;;;;;5069165;28;20372;-60
2023/05/22 01:48:11;;;;;;;23.70;10.15;;;15.40;1.00;;;;;;5069063;28;20498;-67
2023/05/22 01:50:38;;;;;;;18.30;9.50;;;15.30;99.90;;;;;;5069430;28;20499;-67
2023/05/22 01:53:21;;;;;;;18.50;9.90;;;15.20;1.00;;;;;;5068585;28;20393;-67
2023/05/22 01:56:29;;;;;;;20.35;10.10;;;15.20;1.00;;;;;;5068927;28;20391;-60
2023/05/22 01:59:15;;;;;;;20.77;10.88;;;15.20;1.00;;;;;;5066856;28;20408;-67
2023/05/22 02:01:41;;;;;;;21.10;10.13;;;15.20;1.00;;;;;;5069670;28;20430;-67
2023/05/22 02:04:08;;;;;;;21.35;10.75;;;15.20;99.90;;;;;;5083139;28;20473;-67
2023/05/22 02:06:34;;;;;;;22.13;10.60;;;15.20;99.90;;;;;;5077998;28;20398;-67
2023/05/22 02:09:01;;;;;;;19.73;10.93;;;15.20;1.00;;;;;;5086691;28;20398;-64
2023/05/22 02:11:29;;;;;;;20.52;11.23;;;15.20;1.00;;;;;;5072109;28;20768;-67
2023/05/22 02:13:56;;;;;;;21.65;11.45;;;15.20;1.00;;;;;;5072861;28;20400;-68
2023/05/22 02:16:22;;;;;;;25.05;11.00;;;15.20;99.90;;;;;;5087416;28;20443;-67
2023/05/22 02:18:48;;;;;;;22.08;10.93;;;15.20;99.90;;;;;;5088103;28;20445;-60
2023/05/22 02:21:13;;;;;;;22.52;11.38;;;15.20;99.90;;;;;;5089148;28;20441;-67
2023/05/22 02:23:39;;;;;;;23.87;11.80;;;15.10;1.00;;;;;;5089265;28;20385;-67
2023/05/22 02:26:05;;;;;;;20.48;10.25;;;15.00;1.00;;;;;;5088530;28;20386;-68
2023/05/22 02:28:31;;;;;;;20.73;10.00;;;14.90;1.00;;;;;;5089241;28;20384;-68
2023/05/22 02:30:57;;;;;;;21.73;11.07;;;15.00;1.00;;;;;;5083002;28;20582;-68
2023/05/22 02:33:23;;;;;;;19.25;9.40;;;15.10;1.00;;;;;;5068936;28;20848;-66
2023/05/22 02:35:48;;;;;;;19.70;10.80;;;15.00;99.90;;;;;;5079712;28;20380;-60
2023/05/22 02:38:14;;;;;;;19.80;10.73;;;14.70;1.00;;;;;;5089214;28;20834;-68
2023/05/22 02:40:39;;;;;;;21.87;10.77;;;15.00;1.00;;;;;;5088649;28;20390;-66
2023/05/22 02:43:05;;;;;;;20.13;10.80;;;15.00;99.90;;;;;;5088171;28;21013;-67
2023/05/22 02:45:31;;;;;;;20.77;10.25;;;15.00;99.90;;;;;;5089125;28;20420;-68
2023/05/22 02:48:00;;;;;;;19.02;11.00;;;16.60;99.90;;;;;;5083119;28;20387;-67
2023/05/22 02:50:25;;;;;;;20.45;10.57;;;15.00;99.90;;;;;;5068788;28;20494;-67
2023/05/22 02:52:51;;;;;;;22.80;11.67;;;14.90;99.90;;;;;;5067935;28;20952;-66
2023/05/22 02:55:16;;;;;;;19.70;10.17;;;14.90;99.90;;;;;;5068797;28;20384;-67
2023/05/22 02:57:42;;;;;;;18.52;10.00;;;14.90;99.90;;;;;;5068619;28;20422;-67
2023/05/22 03:00:10;;;;;;;18.43;9.30;;;14.90;99.90;;;;;;5067997;28;20376;-67
2023/05/22 03:02:37;;;;;;;19.20;10.43;;;14.90;99.90;;;;;;5068268;28;20388;-67
2023/05/22 03:05:04;;;;;;;20.80;10.70;;;14.90;99.90;;;;;;5068361;28;20391;-66
2023/05/22 03:07:29;;;;;;;21.88;10.88;;;14.80;99.90;;;;;;5068615;28;20392;-66
2023/05/22 03:09:55;;;;;;;18.65;10.50;;;14.70;1.00;;;;;;5069615;28;20477;-66
2023/05/22 03:12:21;;;;;;;21.10;10.50;;;14.60;1.00;;;;;;5083867;28;20442;-66
2023/05/22 03:14:46;;;;;;;22.95;11.10;;;14.50;1.00;;;;;;5092667;28;20711;-61
2023/05/22 03:17:12;;;;;;;19.70;10.45;;;14.40;1.00;;;;;;5090677;28;20398;-67
2023/05/22 03:19:37;;;;;;;19.77;10.60;;;14.40;1.00;;;;;;5084963;28;20772;-67
2023/05/22 03:22:03;;;;;;;21.40;11.33;;;14.40;1.00;;;;;;5086969;28;20421;-67
2023/05/22 03:24:29;;;;;;;21.00;11.52;;;14.40;1.00;;;;;;5090490;28;20406;-67
2023/05/22 03:26:54;;;;;;;20.17;11.40;;;14.50;1.00;;;;;;5087588;28;20462;-67
2023/05/22 03:29:20;;;;;;;22.85;11.30;;;14.50;1.00;;;;;;5091094;28;20459;-67
2023/05/22 03:31:46;;;;;;;21.83;10.73;;;14.60;1.00;;;;;;5088161;28;20491;-67
2023/05/22 03:34:11;;;;;;;23.27;11.10;;;14.70;1.00;;;;;;5087892;28;20397;-67
2023/05/22 03:36:37;;;;;;;20.00;10.93;;;14.60;1.00;;;;;;5089740;28;20685;-67
2023/05/22 03:39:03;;;;;;;23.80;11.68;;;14.60;1.00;;;;;;5086908;28;20419;-66
2023/05/22 03:41:29;;;;;;;23.48;11.00;;;14.70;1.00;;;;;;5090900;28;20616;-62
2023/05/22 03:43:56;;;;;;;22.60;10.38;;;14.80;1.00;;;;;;5088867;28;20801;-67
2023/05/22 03:46:22;;;;;;;23.08;12.20;;;14.90;1.00;;;;;;5090553;28;20909;-67
2023/05/22 03:48:47;;;;;;;19.67;10.32;;;15.00;1.00;;;;;;5071996;28;20394;-61
2023/05/22 03:51:13;;;;;;;19.77;10.80;;;15.00;1.00;;;;;;5087261;28;20433;-68
2023/05/22 03:53:38;;;;;;;22.85;10.45;;;15.10;1.00;;;;;;5088828;28;20390;-68
2023/05/22 03:56:04;;;;;;;19.83;10.40;;;15.20;1.00;;;;;;5090292;28;20420;-67
2023/05/22 03:58:30;;;;;;;20.87;11.10;;;15.20;1.00;;;;;;5090244;28;20466;-68
2023/05/22 04:00:59;;;;;;;20.70;10.60;;;15.10;1.00;;;;;;5084109;28;20910;-68
2023/05/22 04:03:26;;;;;;;21.75;11.55;;;15.20;1.00;;;;;;5090725;28;20398;-68
2023/05/22 04:05:52;;;;;;;23.95;11.48;;;15.10;1.00;;;;;;5082488;28;20407;-61
2023/05/22 04:08:17;;;;;;;22.02;10.60;;;15.10;1.00;;;;;;5089719;28;20394;-70
2023/05/22 04:10:45;;;;;;;18.75;9.93;;;15.10;1.00;;;;;;5086256;28;20422;-55
2023/05/22 04:13:15;;;;;;;20.80;10.80;;;15.20;1.00;;;;;;5088397;28;20409;-55
2023/05/22 04:15:42;;;;;;;21.27;10.77;;;15.20;1.00;;;;;;5085332;28;20398;-55
2023/05/22 04:18:08;;;;;;;20.40;11.32;;;15.30;1.00;;;;;;5088812;28;20405;-55
2023/05/22 04:20:33;;;;;;;23.35;11.60;;;15.40;1.00;;;;;;5082805;28;20473;-55
2023/05/22 04:22:59;;;;;;;24.13;11.80;;;15.60;1.00;;;;;;5078315;28;20414;-55
2023/05/22 04:25:25;;;;;;;20.30;10.77;;;15.80;1.00;;;;;;5089740;28;20956;-55
2023/05/22 04:27:50;;;;;;;18.83;9.70;;;15.80;1.00;;;;;;5088043;28;20408;-56
2023/05/22 04:30:17;;;;;;;20.48;10.70;;;16.00;1.00;;;;;;5092875;28;20802;-55
2023/05/22 04:32:43;;;;;;;20.57;10.50;;;16.10;99.90;;;;;;5104651;28;20376;-55
2023/05/22 04:35:11;;;;;;;20.90;10.98;;;16.40;99.90;;;;;;5110624;28;21011;-55
2023/05/22 04:37:37;;;;;;;21.02;10.88;;;16.40;99.90;;;;;;5092459;28;20722;-55
2023/05/22 04:40:06;;;;;;;19.73;10.75;;;16.50;99.90;;;;;;5078237;28;20404;-55
2023/05/22 04:42:33;;;;;;;20.02;10.30;;;16.60;99.90;;;;;;5085863;28;20904;-55
2023/05/22 04:44:59;;;;;;;20.10;11.07;;;16.70;99.90;;;;;;5069363;28;20752;-55
2023/05/22 04:47:27;;;;;;;20.17;10.95;;;16.80;64.70;;;;;;5079241;28;20371;-55
2023/05/22 04:49:53;;;;;;;20.23;10.13;;;17.00;1.00;;;;;;5088892;28;20862;-56
2023/05/22 04:52:20;;;;;;;19.80;10.13;;;17.10;29.20;;;;;;5090479;28;21182;-55
2023/05/22 04:54:45;;;;;;;19.58;10.35;;;17.30;1.00;;;;;;5090638;28;20378;-56
2023/05/22 04:57:11;;;;;;;19.27;10.40;;;17.70;1.00;;;;;;5088795;28;21231;-56
2023/05/22 04:59:37;;;;;;;20.75;10.13;;;18.30;99.90;;;;;;5073006;28;20393;-65
2023/05/22 05:02:04;;;;;;;19.67;9.63;;;19.10;1.00;;;;;;5094330;28;20464;-67
2023/05/22 05:04:29;;;;;;;19.08;10.10;;;20.00;1.00;;;;;;5090490;28;20531;-67
2023/05/22 05:06:56;;;;;;;16.77;9.60;;;20.90;1.00;;;;;;5075777;28;20399;-65
2023/05/22 05:09:22;;;;;;;19.13;10.00;;;21.60;99.90;;;;;;5089674;28;20567;-65
2023/05/22 05:11:49;;;;;;;18.30;9.57;;;22.10;5.00;;;;;;5079036;28;20449;-60
2023/05/22 05:14:15;;;;;;;17.10;9.52;;;22.80;1.00;;;;;;5069745;28;20384;-64
2023/05/22 05:16:42;;;;;;;19.70;10.10;;;23.20;1.00;;;;;;5080582;28;20407;-67
2023/05/22 05:19:07;;;;;;;20.90;10.15;;;23.40;1.00;;;;;;5079984;28;20884;-66
2023/05/22 05:21:34;;;;;;;17.88;11.00;;;23.40;1.00;;;;;;5081339;28;20497;-66
2023/05/22 05:24:00;;;;;;;18.73;10.43;;;23.40;1.00;;;;;;5069675;28;20395;-66
2023/05/22 05:26:26;;;;;;;18.65;11.18;;;23.40;1.00;;;;;;5081353;28;20472;-66
2023/05/22 05:28:52;;;;;;;17.17;9.60;;;23.50;1.00;;;;;;5077149;28;20481;-65
2023/05/22 05:31:19;;;;;;;17.73;9.98;;;24.00;1.00;;;;;;5087073;28;20414;-62
2023/05/22 05:33:45;;;;;;;20.08;10.15;;;24.70;1.00;;;;;;5089272;28;20397;-66
2023/05/22 05:36:11;;;;;;;21.25;9.95;;;25.30;1.00;;;;;;5089176;28;20384;-66
2023/05/22 05:38:37;;;;;;;16.53;9.23;;;25.50;99.90;;;;;;5083600;28;20402;-66
2023/05/22 05:41:03;;;;;;;18.50;11.05;;;25.90;99.90;;;;;;5087479;28;20463;-66
2023/05/22 05:43:28;;;;;;;18.27;11.20;;;26.40;99.90;;;;;;5087311;28;20492;-65
2023/05/22 05:45:54;;;;;;;17.60;12.00;;;26.60;99.90;;;;;;5088952;28;20743;-66
2023/05/22 05:48:19;;;;;;;18.53;12.50;;;26.80;99.90;;;;;;5089756;28;20385;-65
2023/05/22 05:50:45;;;;;;;16.40;13.10;;;27.00;99.90;;;;;;5089683;28;21387;-66
2023/05/22 05:53:11;;;;;;;20.23;14.63;;;27.40;99.90;;;;;;5089166;28;20494;-65
2023/05/22 05:55:37;;;;;;;19.13;14.67;;;28.30;99.90;;;;;;5089849;28;20460;-65
2023/05/22 05:58:02;;;;;;;18.63;14.60;;;28.80;99.90;;;;;;5088737;28;20412;-65
2023/05/22 06:00:28;;;;;;;17.77;14.30;;;29.00;99.90;;;;;;5089696;28;20382;-65
2023/05/22 06:02:53;;;;;;;19.50;15.13;;;29.20;99.90;;;;;;5088952;28;20863;-65
2023/05/22 06:05:19;;;;;;;17.80;9.93;;;29.60;99.90;;;;;;5082067;28;20398;-65
2023/05/22 06:07:47;;;;;;;19.25;14.50;;;29.30;99.90;;;;;;5089987;28;20394;-65
2023/05/22 06:10:13;;;;;;;20.85;15.18;;;28.40;99.90;;;;;;5088348;28;20462;-64
2023/05/22 06:12:39;;;;;;;19.65;13.75;;;27.60;99.90;;;;;;5089317;28;20382;-65
2023/05/22 06:15:06;;;;;;;21.33;13.23;;;26.90;99.90;;;;;;5088542;28;21054;-65
2023/05/22 06:17:32;;;;;;;20.38;12.45;;;25.90;99.90;;;;;;5089434;28;20423;-65
2023/05/22 06:19:58;;;;;;;19.20;13.03;;;25.20;99.90;;;;;;5088413;28;20400;-65
2023/05/22 06:22:25;;;;;;;19.30;12.48;;;25.40;99.90;;;;;;5089471;28;20386;-65
2023/05/22 06:24:53;;;;;;;20.38;12.30;;;25.30;99.90;;;;;;5088862;28;20397;-60
2023/05/22 06:27:23;;;;;;;22.90;12.30;;;24.80;99.90;;;;;;5089050;28;20382;-66
2023/05/22 06:29:49;;;;;;;21.52;11.30;;;24.10;99.90;;;;;;5089565;28;20408;-65
2023/05/22 06:32:15;;;;;;;20.45;10.88;;;23.60;99.90;;;;;;5070593;28;20732;-65
2023/05/22 06:34:43;;;;;;;19.70;11.80;;;23.70;99.90;;;;;;5089270;28;20382;-65
2023/05/22 06:37:09;;;;;;;19.95;11.80;;;23.80;99.90;;;;;;5087955;28;20498;-65
2023/05/22 06:39:34;;;;;;;23.20;11.33;;;23.60;99.90;;;;;;5089100;28;20770;-65
2023/05/22 06:42:00;;;;;;;19.60;11.77;;;24.30;99.90;;;;;;5088730;28;20398;-65
2023/05/22 06:44:26;;;;;;;18.00;11.23;;;24.90;99.90;;;;;;5092389;28;20370;-65
2023/05/22 06:46:51;;;;;;;21.27;11.30;;;25.10;99.90;;;;;;5093087;28;20736;-60
2023/05/22 06:49:18;;;;;;;22.08;12.38;;;25.20;99.90;;;;;;5093139;28;20377;-65
2023/05/22 06:51:46;;;;;;;19.58;11.05;;;25.20;99.90;;;;;;5093062;28;20406;-64
2023/05/22 06:54:12;;;;;;;23.77;10.98;;;26.10;99.90;;;;;;5092305;28;20873;-65
2023/05/22 06:56:42;;;;;;;19.65;12.20;;;26.80;99.90;;;;;;5092870;28;20862;-65
2023/05/22 06:59:09;;;;;;;20.30;11.90;;;25.90;99.90;;;;;;5092460;28;20378;-64
2023/05/22 07:01:35;;;;;;;18.88;11.80;;;25.20;99.90;;;;;;5093001;28;20374;-65
2023/05/22 07:04:03;;;;;;;19.65;11.68;;;24.70;99.90;;;;;;5091857;28;20772;-64
2023/05/22 07:06:32;;;;;;;19.35;11.10;;;24.70;99.90;;;;;;5092821;28;20909;-63
2023/05/22 07:08:58;;;;;;;19.15;11.30;;;25.30;99.90;;;;;;5091865;28;20886;-64
2023/05/22 07:11:24;;;;;;;21.37;11.80;;;26.20;99.90;;;;;;5092807;28;20428;-64
2023/05/22 07:13:50;;;;;;;16.48;10.85;;;27.50;99.90;;;;;;5092508;28;20394;-61
2023/05/22 07:16:16;;;;;;;18.23;12.70;;;28.60;99.90;;;;;;5092441;28;20707;-64
2023/05/22 07:18:41;;;;;;;22.47;13.27;;;29.20;99.90;;;;;;5092546;28;20385;-64
2023/05/22 07:21:07;;;;;;;20.23;14.47;;;29.10;99.90;;;;;;5092020;28;20382;-64
2023/05/22 07:23:32;;;;;;;18.87;13.37;;;29.80;99.90;;;;;;5093127;28;20428;-64
2023/05/22 07:25:58;;;;;;;18.38;13.20;;;30.30;99.90;;;;;;5091473;28;20396;-64
2023/05/22 07:28:24;;;;;;;18.55;14.43;;;29.60;99.90;;;;;;5092617;28;20705;-63
2023/05/22 07:30:50;;;;;;;16.97;14.03;;;29.70;99.90;;;;;;5092661;28;20472;-63
2023/05/22 07:33:15;;;;;;;18.33;13.75;;;30.00;99.90;;;;;;5091629;28;20742;-63
2023/05/22 07:35:42;;;;;;;14.93;10.73;;;29.90;99.90;;;;;;5092351;28;20461;-63
2023/05/22 07:38:09;;;;;;;16.50;12.85;;;30.10;99.90;;;;;;5091636;28;20385;-63
2023/05/22 07:40:35;;;;;;;17.17;13.00;;;30.30;99.90;;;;;;5091989;28;20426;-63
2023/05/22 07:43:00;;;;;;;16.70;12.00;;;30.30;99.90;;;;;;5091373;28;20424;-63
2023/05/22 07:45:26;;;;;;;16.20;13.10;;;30.20;99.90;;;;;;5074214;28;20422;-63
2023/05/22 07:47:51;;;;;;;18.27;13.35;;;30.50;99.90;;;;;;5091697;28;20480;-61
2023/05/22 07:50:17;;;;;;;14.70;12.90;;;30.20;99.90;;;;;;5091481;28;20382;-63
2023/05/22 07:52:43;;;;;;;19.20;13.50;;;30.60;99.90;;;;;;5092073;28;20382;-63
2023/05/22 07:55:09;;;;;;;14.18;7.90;;;31.60;99.90;;;;;;5090561;28;20389;-63
2023/05/22 07:57:35;;;;;;;15.52;8.55;;;32.00;99.90;;;;;;5091745;28;20401;-63
2023/05/22 08:00:08;;;;;;;19.42;9.02;;;31.80;99.90;;;;;;5090963;28;20480;-63
2023/05/22 08:02:34;;;;;;;14.53;8.23;;;31.30;99.90;;;;;;5091520;28;20446;-63
2023/05/22 08:04:59;;;;;;;20.75;9.50;;;30.70;99.90;;;;;;5090800;28;20405;-63
2023/05/22 08:07:25;;;;;;;13.90;8.23;;;30.80;99.90;;;;;;5092108;28;20382;-63
2023/05/22 08:09:51;;;;;;;17.27;12.30;;;31.00;99.90;;;;;;5091274;28;20406;-61
2023/05/22 08:12:16;;;;;;;18.60;12.13;;;30.60;99.90;;;;;;5090924;28;20405;-63
2023/05/22 08:14:42;;;;;;;17.93;13.60;;;31.00;99.90;;;;;;5091702;28;20484;-63
2023/05/22 08:17:08;;;;;;;16.02;11.85;;;31.00;99.90;;;;;;5090823;28;20428;-63
2023/05/22 08:19:33;;;;;;;13.18;7.22;;;31.30;99.90;;;;;;5091421;28;20424;-63
2023/05/22 08:21:59;;;;;;;14.93;7.90;;;32.80;99.90;;;;;;5090362;28;20435;-63
2023/05/22 08:24:29;;;;;;;13.70;7.00;;;33.10;99.90;;;;;;5091282;28;20843;-63
2023/05/22 08:26:56;;;;;;;15.57;9.15;;;33.40;99.90;;;;;;5090381;28;20424;-61
2023/05/22 08:29:21;;;;;;;16.38;8.73;;;33.40;99.90;;;;;;5091079;28;20434;-63
2023/05/22 08:31:47;;;;;;;14.37;7.70;;;33.30;99.90;;;;;;5090596;28;20405;-63
2023/05/22 08:34:14;;;;;;;14.93;7.90;;;33.10;99.90;;;;;;5090501;28;20378;-63
2023/05/22 08:36:39;;;;;;;17.02;9.18;;;33.20;99.90;;;;;;5090716;28;20768;-63
2023/05/22 08:39:06;;;;;;;14.82;8.13;;;32.60;99.90;;;;;;5090011;28;20401;-63
2023/05/22 08:41:31;;;;;;;15.57;8.32;;;32.70;99.90;;;;;;5090823;28;20389;-63
2023/05/22 08:43:57;;;;;;;13.07;7.20;;;;;;;;;;5090280;28;20377;-63
2023/05/22 08:46:25;;;;;;;13.57;8.10;;;33.80;99.90;;;;;;5090602;28;20374;-63
2023/05/22 08:48:50;;;;;;;14.32;8.07;;;35.10;99.90;;;;;;5090855;28;20382;-62
2023/05/22 08:51:19;;;;;;;15.65;12.10;;;34.40;99.90;;;;;;5090060;28;20493;-63
2023/05/22 08:53:45;;;;;;;16.15;13.48;;;32.50;99.90;;;;;;5090875;28;20370;-62
2023/05/22 08:56:12;;;;;;;16.47;12.97;;;31.00;99.90;;;;;;5090112;28;20427;-62
2023/05/22 08:58:38;;;;;;;15.40;12.70;;;30.40;99.90;;;;;;5090759;28;20396;-62
2023/05/22 09:01:05;;;;;;;14.15;11.15;;;30.50;99.90;;;;;;5089897;28;20525;-62
2023/05/22 09:03:31;;;;;;;17.77;12.27;;;31.90;99.90;;;;;;5090572;28;20382;-62
2023/05/22 09:05:58;;;;;;;16.80;13.30;;;34.10;99.90;;;;;;5089833;28;20401;-62
2023/05/22 09:08:24;;;;;;;14.27;12.43;;;34.60;99.90;;;;;;5090450;28;20485;-63
2023/05/22 09:10:50;;;;;;;14.47;10.67;;;34.60;99.90;;;;;;5090401;28;20525;-62
2023/05/22 09:13:26;;;;;;;16.80;12.80;;;33.80;99.90;;;;;;5089599;28;20382;-62
2023/05/22 09:15:56;;;;;;;15.13;12.05;;;33.30;99.90;;;;;;5090344;28;20443;-61
2023/05/22 09:18:26;;;;;;;15.85;11.77;;;32.20;99.90;;;;;;5090731;28;20464;-62
2023/05/22 09:20:51;;;;;;;15.75;13.35;;;31.40;99.90;;;;;;5090363;28;20386;-62
2023/05/22 09:23:17;;;;;;;15.47;11.40;;;31.50;99.90;;;;;;5089815;28;20382;-62
2023/05/22 09:25:43;;;;;;;16.33;11.60;;;31.90;99.90;;;;;;5089891;28;20403;-62
2023/05/22 09:28:12;;;;;;;14.73;12.18;;;32.00;99.90;;;;;;5089316;28;20437;-62
2023/05/22 09:30:38;;;;;;;17.10;12.98;;;32.00;99.90;;;;;;5090190;28;20409;-62
2023/05/22 09:33:07;;;;;;;17.50;12.88;;;31.40;99.90;;;;;;5089239;28;20420;-61
2023/05/22 09:35:35;;;;;;;15.83;13.03;;;31.50;99.90;;;;;;5089976;28;20858;-62
2023/05/22 09:38:02;;;;;;;16.88;12.70;;;30.80;99.90;;;;;;5089153;28;20854;-62
2023/05/22 09:40:28;;;;;;;16.52;12.98;;;29.80;99.90;;;;;;5089669;28;20473;-62
2023/05/22 09:42:53;;;;;;;16.02;12.82;;;29.80;99.90;;;;;;5090094;28;20516;-61
2023/05/22 09:45:25;;;;;;;16.92;12.63;;;30.40;99.90;;;;;;5089924;28;20382;-62
2023/05/22 09:47:50;;;;;;;14.47;11.50;;;30.20;99.90;;;;;;5089972;28;20378;-62
2023/05/22 09:50:17;;;;;;;15.07;12.87;;;30.90;99.90;;;;;;5089211;28;21238;-62
2023/05/22 09:52:44;;;;;;;14.45;12.20;;;31.10;99.90;;;;;;5089998;28;20409;-64
2023/05/22 09:55:12;;;;;;;14.05;10.70;;;31.60;99.90;;;;;;5089061;28;20418;-62
2023/05/22 09:57:43;;;;;;;16.15;12.63;;;31.40;99.90;;;;;;5089652;28;20400;-62
2023/05/22 10:00:12;;;;;;;16.42;11.63;;;31.50;99.90;;;;;;5089029;28;20405;-62
2023/05/22 10:02:44;;;;;;;15.90;11.88;;;32.40;99.90;;;;;;5089723;28;20480;-62
2023/05/22 10:05:11;;;;;;;16.80;12.10;;;32.80;99.90;;;;;;5088841;28;20863;-62
2023/05/22 10:07:46;;;;;;;14.70;11.40;;;33.00;99.90;;;;;;5089487;28;20386;-62
2023/05/22 10:10:14;;;;;;;17.10;11.70;;;33.40;99.90;;;;;;5088232;28;20767;-62
2023/05/22 10:12:55;;;;;;;15.50;12.60;;;33.40;99.90;;;;;;5089613;28;20413;-62
2023/05/22 10:15:21;;;;;;;14.82;11.63;;;33.40;99.90;;;;;;5051026;28;20487;-62
2023/05/22 10:17:47;;;;;;;15.00;10.63;;;33.50;99.90;;;;;;5068726;28;20445;-62
2023/05/22 10:20:14;;;;;;;15.77;11.40;;;33.30;99.90;;;;;;5068501;28;20453;-62
2023/05/22 10:22:40;;;;;;;15.67;11.47;;;32.80;99.90;;;;;;5069394;28;20392;-62
2023/05/22 10:25:07;;;;;;;14.98;11.15;;;33.00;99.90;;;;;;5068621;28;20482;-62
2023/05/22 10:27:32;;;;;;;14.32;10.52;;;33.30;99.90;;;;;;5069285;28;20376;-62
2023/05/22 10:30:32;;;;;;;15.00;11.27;;;33.20;99.90;;;;;;5068251;28;20437;-62
2023/05/22 10:33:23;;;;;;;15.43;12.30;;;32.20;99.90;;;;;;5068553;28;20383;-61
2023/05/22 10:36:00;;;;;;;15.57;10.97;;;31.80;99.90;;;;;;5069093;28;20384;-63
2023/05/22 10:39:06;;;;;;;14.70;11.27;;;32.00;99.90;;;;;;5069217;28;20395;-62
2023/05/22 10:41:32;;;;;;;15.10;12.05;;;31.70;99.90;;;;;;5069043;28;21211;-62
2023/05/22 10:43:58;;;;;;;16.58;13.05;;;31.70;99.90;;;;;;5068458;28;20379;-61
2023/05/22 10:46:24;;;;;;;16.90;12.98;;;31.50;99.90;;;;;;5069265;28;20398;-62
2023/05/22 10:48:52;;;;;;;15.95;12.63;;;31.00;99.90;;;;;;5068911;28;20463;-62
2023/05/22 10:51:20;;;;;;;14.65;12.65;;;31.10;99.90;;;;;;5068196;28;20399;-62
2023/05/22 10:53:52;;;;;;;16.00;12.15;;;30.90;99.90;;;;;;5070350;28;20447;-62
2023/05/22 10:56:18;;;;;;;19.07;11.93;;;30.50;99.90;;;;;;5081304;28;20551;-62
2023/05/22 10:58:55;;;;;;;16.95;11.95;;;30.70;99.90;;;;;;5089064;28;20764;-62
2023/05/22 11:01:24;;;;;;;15.55;11.80;;;30.80;99.90;;;;;;5088638;28;20386;-62
2023/05/22 11:03:57;;;;;;;14.95;12.38;;;31.00;99.90;;;;;;5089116;28;20389;-62
2023/05/22 11:06:36;;;;;;;16.58;12.80;;;31.10;99.90;;;;;;5088694;28;20386;-62
2023/05/22 11:09:47;;;;;;;17.10;12.70;;;31.20;99.90;;;;;;5087856;28;20843;-62
2023/05/22 11:12:27;;;;;;;17.42;12.00;;;31.20;99.90;;;;;;5088274;28;20414;-63
2023/05/22 11:15:05;;;;;;;14.60;11.80;;;31.40;99.90;;;;;;5088926;28;20465;-63
2023/05/22 11:17:38;;;;;;;19.35;12.50;;;31.40;99.90;;;;;;5089053;28;20390;-63
2023/05/22 11:20:11;;;;;;;15.73;12.43;;;31.60;99.90;;;;;;5087742;28;20740;-63
2023/05/22 11:22:41;;;;;;;14.70;12.43;;;31.20;99.90;;;;;;5089005;28;20385;-63
2023/05/22 11:25:15;;;;;;;14.77;11.98;;;31.30;99.90;;;;;;5088176;28;20390;-62
2023/05/22 11:27:42;;;;;;;16.23;12.38;;;31.60;99.90;;;;;;5089075;28;20374;-63
2023/05/22 11:30:09;;;;;;;16.30;11.05;;;31.60;99.90;;;;;;5088546;28;20860;-63
2023/05/22 11:32:36;;;;;;;16.98;12.63;;;30.90;99.90;;;;;;5092449;28;20527;-63
2023/05/22 11:35:04;;;;;;;17.60;12.37;;;30.70;99.90;;;;;;5091563;28;20803;-63
2023/05/22 11:37:31;;;;;;;20.73;12.10;;;30.90;99.90;;;;;;5092521;28;20465;-63
2023/05/22 11:39:59;;;;;;;17.23;12.00;;;30.90;99.90;;;;;;5091850;28;20401;-61
2023/05/22 11:42:25;;;;;;;16.03;12.50;;;30.80;99.90;;;;;;5092455;28;20863;-63
2023/05/22 11:44:51;;;;;;;16.70;12.20;;;30.40;99.90;;;;;;5092156;28;20423;-63
2023/05/22 11:47:17;;;;;;;17.30;11.60;;;29.70;99.90;;;;;;5091803;28;21022;-63
2023/05/22 11:49:43;;;;;;;18.20;11.30;;;30.00;99.90;;;;;;5092097;28;20423;-63
2023/05/22 11:52:09;;;;;;;17.80;12.50;;;30.60;99.90;;;;;;5091339;28;20445;-64
2023/05/22 11:54:35;;;;;;;16.20;11.60;;;30.80;99.90;;;;;;5092099;28;20389;-63
2023/05/22 11:57:07;;;;;;;17.80;12.05;;;30.80;99.90;;;;;;5091423;28;20412;-62
2023/05/22 11:59:33;;;;;;;17.20;12.57;;;30.70;99.90;;;;;;5092051;28;20374;-63
2023/05/22 12:01:59;;;;;;;15.10;11.25;;;30.60;99.90;;;;;;5091489;28;20370;-61
2023/05/22 12:04:25;;;;;;;15.48;12.57;;;30.40;99.90;;;;;;5091867;28;20469;-62
2023/05/22 12:06:52;;;;;;;17.33;12.55;;;30.40;99.90;;;;;;5091981;28;20499;-63
2023/05/22 12:09:17;;;;;;;18.38;13.00;;;30.60;99.90;;;;;;5090625;28;20402;-63
2023/05/22 12:11:46;;;;;;;15.65;11.18;;;30.70;99.90;;;;;;5092065;28;20435;-62
2023/05/22 12:14:13;;;;;;;15.20;11.98;;;30.80;99.90;;;;;;5090777;28;20469;-63
2023/05/22 12:16:39;;;;;;;17.73;12.63;;;30.90;99.90;;;;;;5091550;28;20401;-63
2023/05/22 12:19:09;;;;;;;17.30;11.73;;;30.80;99.90;;;;;;5090621;28;20427;-63
2023/05/22 12:21:37;;;;;;;19.23;11.80;;;30.70;99.90;;;;;;5091780;28;20381;-63
2023/05/22 12:24:04;;;;;;;17.55;12.50;;;30.90;99.90;;;;;;5090647;28;20465;-63
2023/05/22 12:26:31;;;;;;;18.60;12.48;;;30.80;99.90;;;;;;5091371;28;20386;-63
2023/05/22 12:28:57;;;;;;;16.15;12.13;;;30.80;99.90;;;;;;5091247;28;20374;-61
2023/05/22 12:31:23;;;;;;;15.15;12.10;;;30.40;99.90;;;;;;5090944;28;20412;-63
2023/05/22 12:33:56;;;;;;;18.17;12.43;;;30.20;99.90;;;;;;5091244;28;20378;-62